createdAt,value
2023-01-22T00:00:42.138Z,48.96
2023-01-22T00:03:08.991Z,48.79
2023-01-22T00:05:36.749Z,49.28
2023-01-22T00:08:03.594Z,49.08
2023-01-22T00:10:32.488Z,49.21
2023-01-22T00:12:59.272Z,49.70
2023-01-22T00:15:27.152Z,49.75
2023-01-22T00:17:54.467Z,49.60
2023-01-22T00:20:21.232Z,49.53
2023-01-22T00:22:47.952Z,49.41
2023-01-22T00:25:14.834Z,49.75
2023-01-22T00:27:41.866Z,49.39
2023-01-22T00:30:09.647Z,49.98
2023-01-22T00:32:36.399Z,49.80
2023-01-22T00:35:03.374Z,49.74
2023-01-22T00:37:30.135Z,50.25
2023-01-22T00:39:57.081Z,50.43
2023-01-22T00:42:24.083Z,50.18
2023-01-22T00:44:50.871Z,49.72
2023-01-22T00:47:17.607Z,54.14
2023-01-22T00:49:44.346Z,54.51
2023-01-22T00:52:11.273Z,54.75
2023-01-22T00:54:38.198Z,54.15
2023-01-22T00:57:05.280Z,53.64
2023-01-22T00:59:32.623Z,52.22
2023-01-22T01:01:59.586Z,52.66
2023-01-22T01:04:26.927Z,51.87
2023-01-22T01:06:55.406Z,51.63
2023-01-22T01:09:22.346Z,51.44
2023-01-22T01:11:49.197Z,50.75
2023-01-22T01:14:17.356Z,50.93
2023-01-22T01:16:44.284Z,50.07
2023-01-22T01:19:12.551Z,50.82
2023-01-22T01:21:39.326Z,50.86
2023-01-22T01:24:06.203Z,49.97
2023-01-22T01:26:34.770Z,50.69
2023-01-22T01:29:04.770Z,50.19
2023-01-22T01:31:31.793Z,50.52
2023-01-22T01:33:59.762Z,53.72
2023-01-22T01:36:47.210Z,53.06
2023-01-22T01:39:14.592Z,51.42
2023-01-22T01:41:42.306Z,51.31
2023-01-22T01:44:17.402Z,50.99
2023-01-22T01:47:07.910Z,51.22
2023-01-22T01:49:45.070Z,49.85
2023-01-22T01:52:13.108Z,49.71
2023-01-22T01:54:42.873Z,50.47
2023-01-22T01:57:15.300Z,50.07
2023-01-22T01:59:43.216Z,50.23
2023-01-22T02:02:10.543Z,50.56
2023-01-22T02:04:37.796Z,50.95
2023-01-22T02:07:05.568Z,50.39
2023-01-22T02:09:33.816Z,50.07
2023-01-22T02:12:02.168Z,50.47
2023-01-22T02:14:39.875Z,50.22
2023-01-22T02:17:24.831Z,50.58
2023-01-22T02:19:51.751Z,50.59
2023-01-22T02:22:31.120Z,50.74
2023-01-22T02:24:59.562Z,50.78
2023-01-22T02:27:27.407Z,51.42
2023-01-22T02:29:54.456Z,51.26
2023-01-22T02:32:21.960Z,51.99
2023-01-22T02:34:49.005Z,53.93
2023-01-22T02:37:15.968Z,53.33
2023-01-22T02:39:43.052Z,52.04
2023-01-22T02:42:10.451Z,52.02
2023-01-22T02:44:38.849Z,51.48
2023-01-22T02:47:06.154Z,51.35
2023-01-22T02:49:33.014Z,51.55
2023-01-22T02:52:01.039Z,51.91
2023-01-22T02:54:28.722Z,50.83
2023-01-22T02:56:56.783Z,51.55
2023-01-22T02:59:23.978Z,52.15
2023-01-22T03:01:51.875Z,52.61
2023-01-22T03:04:18.864Z,51.67
2023-01-22T03:07:05.719Z,52.43
2023-01-22T03:09:32.554Z,52.24
2023-01-22T03:11:59.227Z,52.80
2023-01-22T03:14:49.510Z,53.86
2023-01-22T03:17:36.114Z,52.81
2023-01-22T03:20:21.850Z,52.05
2023-01-22T03:22:48.687Z,51.98
2023-01-22T03:25:15.534Z,52.76
2023-01-22T03:28:03.718Z,52.59
2023-01-22T03:30:30.704Z,53.63
2023-01-22T03:32:58.097Z,52.46
2023-01-22T03:35:25.234Z,52.10
2023-01-22T03:38:12.382Z,51.91
2023-01-22T03:40:39.875Z,51.11
2023-01-22T03:43:06.928Z,51.29
2023-01-22T03:45:35.191Z,51.75
2023-01-22T03:48:03.941Z,51.52
2023-01-22T03:50:36.725Z,51.28
2023-01-22T03:53:04.190Z,50.75
2023-01-22T03:55:32.380Z,50.76
2023-01-22T03:57:59.352Z,51.86
2023-01-22T04:00:26.192Z,51.11
2023-01-22T04:02:54.110Z,51.41
2023-01-22T04:05:25.415Z,53.31
2023-01-22T04:07:52.505Z,52.74
2023-01-22T04:10:23.887Z,53.06
2023-01-22T04:12:51.066Z,52.83
2023-01-22T04:15:21.153Z,52.14
2023-01-22T04:17:49.670Z,50.83
2023-01-22T04:20:34.652Z,50.67
2023-01-22T04:23:29.823Z,50.84
2023-01-22T04:25:57.904Z,50.24
2023-01-22T04:28:25.448Z,50.71
2023-01-22T04:30:55.394Z,50.10
2023-01-22T04:33:36.208Z,49.86
2023-01-22T04:36:10.397Z,49.90
2023-01-22T04:38:37.558Z,49.42
2023-01-22T04:41:04.395Z,50.20
2023-01-22T04:43:31.238Z,50.96
2023-01-22T04:45:58.002Z,50.25
2023-01-22T04:48:29.483Z,50.25
2023-01-22T04:50:56.552Z,50.28
2023-01-22T04:53:26.330Z,49.76
2023-01-22T04:55:53.125Z,49.91
2023-01-22T04:58:21.088Z,50.14
2023-01-22T05:00:48.290Z,50.09
2023-01-22T05:03:15.239Z,50.59
2023-01-22T05:05:42.399Z,50.56
2023-01-22T05:08:09.118Z,49.92
2023-01-22T05:10:36.946Z,50.10
2023-01-22T05:13:07.092Z,49.29
2023-01-22T05:15:35.297Z,49.81
2023-01-22T05:18:09.509Z,49.96
2023-01-22T05:20:39.214Z,49.66
2023-01-22T05:23:07.529Z,49.95
2023-01-22T05:25:34.257Z,49.68
2023-01-22T05:28:04.185Z,49.99
2023-01-22T05:30:43.868Z,50.28
2023-01-22T05:33:37.225Z,50.49
2023-01-22T05:36:07.387Z,50.54
2023-01-22T05:38:35.846Z,50.03
2023-01-22T05:41:02.759Z,49.43
2023-01-22T05:43:38.021Z,50.12
2023-01-22T05:46:08.203Z,50.15
2023-01-22T05:48:40.953Z,49.75
2023-01-22T05:51:14.298Z,50.77
2023-01-22T05:53:41.403Z,50.43
2023-01-22T05:56:08.640Z,50.54
2023-01-22T05:58:38.488Z,50.38
2023-01-22T06:01:06.048Z,50.41
2023-01-22T06:03:39.831Z,50.52
2023-01-22T06:06:11.105Z,49.87
2023-01-22T06:08:38.936Z,49.80
2023-01-22T06:11:10.069Z,51.10
2023-01-22T06:13:38.530Z,49.93
2023-01-22T06:16:14.894Z,49.81
2023-01-22T06:19:12.468Z,50.67
2023-01-22T06:21:50.869Z,50.20
2023-01-22T06:24:19.184Z,50.03
2023-01-22T06:26:46.904Z,49.93
2023-01-22T06:29:15.047Z,50.02
2023-01-22T06:31:43.016Z,50.94
2023-01-22T06:34:14.631Z,53.02
2023-01-22T06:36:43.516Z,53.36
2023-01-22T06:39:10.912Z,51.36
2023-01-22T06:41:55.252Z,50.90
2023-01-22T06:44:23.279Z,50.63
2023-01-22T06:46:54.305Z,50.63
2023-01-22T06:49:27.084Z,50.42
2023-01-22T06:51:55.784Z,51.38
2023-01-22T06:54:23.408Z,53.26
2023-01-22T06:56:50.134Z,54.42
2023-01-22T06:59:18.224Z,55.80
2023-01-22T07:01:45.103Z,54.90
2023-01-22T07:04:12.079Z,53.43
2023-01-22T07:06:38.786Z,53.83
2023-01-22T07:09:06.658Z,52.91
2023-01-22T07:11:33.736Z,54.80
2023-01-22T07:14:00.635Z,54.60
2023-01-22T07:16:27.437Z,53.32
2023-01-22T07:18:54.354Z,54.30
2023-01-22T07:21:21.093Z,53.54
2023-01-22T07:23:48.151Z,55.54
2023-01-22T07:26:15.953Z,54.42
2023-01-22T07:28:43.994Z,52.81
2023-01-22T07:31:11.845Z,52.74
2023-01-22T07:33:38.746Z,51.80
2023-01-22T07:36:06.212Z,51.81
2023-01-22T07:38:32.995Z,53.34
2023-01-22T07:41:01.260Z,52.61
2023-01-22T07:43:32.407Z,51.62
2023-01-22T07:46:03.816Z,51.76
2023-01-22T07:48:30.918Z,51.56
2023-01-22T07:51:05.275Z,51.29
2023-01-22T07:53:33.579Z,50.39
2023-01-22T07:56:04.011Z,51.33
2023-01-22T07:58:30.872Z,50.78
2023-01-22T08:00:57.725Z,50.79
2023-01-22T08:03:24.575Z,50.92
2023-01-22T08:05:51.469Z,50.54
2023-01-22T08:08:22.439Z,50.21
2023-01-22T08:10:49.283Z,51.14
2023-01-22T08:13:16.120Z,50.98
2023-01-22T08:15:43.849Z,51.07
2023-01-22T08:18:11.851Z,51.67
2023-01-22T08:20:38.714Z,51.63
2023-01-22T08:23:05.820Z,50.98
2023-01-22T08:25:32.862Z,50.63
2023-01-22T08:28:02.953Z,50.17
2023-01-22T08:30:29.615Z,50.28
2023-01-22T08:32:56.467Z,50.21
2023-01-22T08:35:24.556Z,50.29
2023-01-22T08:37:51.290Z,49.95
2023-01-22T08:40:18.694Z,49.98
2023-01-22T08:42:54.466Z,49.10
2023-01-22T08:45:22.317Z,50.03
2023-01-22T08:47:49.035Z,49.92
2023-01-22T08:50:16.505Z,50.28
2023-01-22T08:52:43.455Z,50.32
2023-01-22T08:55:10.466Z,49.88
2023-01-22T08:57:37.494Z,49.81
2023-01-22T09:00:05.777Z,49.86
2023-01-22T09:02:33.459Z,50.05
2023-01-22T09:05:00.325Z,49.45
2023-01-22T09:07:27.038Z,49.57
2023-01-22T09:09:54.014Z,49.91
2023-01-22T09:12:20.829Z,48.86
2023-01-22T09:14:47.670Z,48.43
2023-01-22T09:17:14.404Z,48.02
2023-01-22T09:19:41.146Z,48.51
2023-01-22T09:22:07.990Z,48.21
2023-01-22T09:24:34.949Z,49.03
2023-01-22T09:27:01.787Z,48.45
2023-01-22T09:29:28.708Z,49.14
2023-01-22T09:31:56.432Z,49.05
2023-01-22T09:34:23.321Z,48.94
2023-01-22T09:36:50.243Z,48.13
2023-01-22T09:39:17.465Z,48.09
2023-01-22T09:41:49.033Z,48.02
2023-01-22T09:44:20.343Z,48.94
2023-01-22T09:47:07.873Z,48.92
2023-01-22T09:50:00.759Z,48.43
2023-01-22T09:52:33.722Z,48.61
2023-01-22T09:55:00.792Z,48.00
2023-01-22T09:57:32.191Z,48.17
2023-01-22T09:59:59.798Z,48.85
2023-01-22T10:02:30.920Z,48.83
2023-01-22T10:05:16.485Z,48.67
2023-01-22T10:07:55.631Z,47.60
2023-01-22T10:10:27.322Z,47.88
2023-01-22T10:13:01.679Z,48.05
2023-01-22T10:15:28.595Z,47.93
2023-01-22T10:17:57.355Z,47.62
2023-01-22T10:20:26.375Z,47.17
2023-01-22T10:22:56.030Z,47.12
2023-01-22T10:25:23.072Z,46.48
2023-01-22T10:27:59.479Z,47.09
2023-01-22T10:30:27.871Z,47.88
2023-01-22T10:33:03.362Z,46.56
2023-01-22T10:35:32.058Z,47.05
2023-01-22T10:38:00.607Z,46.75
2023-01-22T10:40:38.161Z,47.17
2023-01-22T10:43:10.129Z,47.37
2023-01-22T10:45:37.521Z,49.36
2023-01-22T10:48:12.707Z,48.05
2023-01-22T10:50:40.471Z,48.61
2023-01-22T10:53:34.454Z,47.24
2023-01-22T10:56:04.504Z,48.73
2023-01-22T10:58:34.924Z,48.73
2023-01-22T11:01:22.004Z,49.20
2023-01-22T11:03:49.098Z,47.92
2023-01-22T11:06:20.679Z,47.89
2023-01-22T11:09:00.432Z,47.45
2023-01-22T11:11:41.785Z,47.57
2023-01-22T11:14:20.371Z,47.92
2023-01-22T11:16:51.314Z,47.48
2023-01-22T11:19:32.641Z,46.95
2023-01-22T11:22:14.451Z,46.00
2023-01-22T11:24:47.380Z,46.31
2023-01-22T11:27:22.846Z,45.59
2023-01-22T11:29:55.906Z,45.23
2023-01-22T11:32:55.325Z,45.50
2023-01-22T11:35:47.629Z,43.50
2023-01-22T11:38:33.201Z,43.92
2023-01-22T11:41:16.932Z,42.56
2023-01-22T11:44:06.329Z,42.82
2023-01-22T11:46:44.014Z,43.03
2023-01-22T11:49:22.367Z,42.32
2023-01-22T11:51:51.750Z,42.25
2023-01-22T11:54:25.406Z,41.33
2023-01-22T11:57:03.012Z,41.38
2023-01-22T11:59:51.772Z,40.65
2023-01-22T12:02:30.253Z,40.03
2023-01-22T12:05:07.429Z,38.82
2023-01-22T12:08:02.143Z,38.29
2023-01-22T12:10:58.705Z,37.33
2023-01-22T12:13:44.297Z,37.70
2023-01-22T12:16:40.479Z,33.86
2023-01-22T12:19:10.072Z,32.31
2023-01-22T12:22:09.381Z,30.16
2023-01-22T12:25:03.686Z,28.46
2023-01-22T12:27:39.075Z,27.85
2023-01-22T12:30:17.016Z,27.34
2023-01-22T12:32:48.629Z,27.20
2023-01-22T12:35:21.370Z,25.42
2023-01-22T12:37:54.882Z,24.95
2023-01-22T12:41:00.396Z,25.54
2023-01-22T12:43:35.160Z,24.67
2023-01-22T12:46:27.168Z,24.71
2023-01-22T12:49:03.960Z,24.53
2023-01-22T12:51:46.993Z,24.29
2023-01-22T12:54:37.504Z,23.45
2023-01-22T12:57:17.411Z,24.01
2023-01-22T12:59:46.258Z,24.10
2023-01-22T13:02:22.122Z,23.36
2023-01-22T13:04:49.182Z,23.51
2023-01-22T13:07:27.235Z,23.52
2023-01-22T13:10:25.179Z,24.84
2023-01-22T13:12:55.146Z,22.99
2023-01-22T13:15:26.105Z,23.15
2023-01-22T13:18:08.065Z,23.78
2023-01-22T13:20:45.721Z,24.18
2023-01-22T13:23:13.981Z,23.15
2023-01-22T13:25:42.833Z,24.35
2023-01-22T13:28:16.883Z,23.59
2023-01-22T13:30:54.933Z,23.91
2023-01-22T13:33:21.939Z,23.69
2023-01-22T13:35:49.354Z,23.33
2023-01-22T13:38:27.661Z,23.41
2023-01-22T13:40:59.893Z,24.13
2023-01-22T13:43:27.729Z,24.78
2023-01-22T13:45:58.494Z,24.96
2023-01-22T13:48:26.719Z,26.06
2023-01-22T13:51:03.425Z,25.72
2023-01-22T13:53:43.956Z,25.49
2023-01-22T13:56:19.186Z,25.81
2023-01-22T13:58:48.695Z,26.40
2023-01-22T14:01:31.780Z,27.31
2023-01-22T14:04:07.233Z,29.99
2023-01-22T14:06:49.687Z,33.59
2023-01-22T14:09:52.771Z,34.74
2023-01-22T14:12:22.596Z,35.78
2023-01-22T14:14:49.522Z,35.99
2023-01-22T14:17:25.244Z,36.67
2023-01-22T14:19:52.342Z,36.87
2023-01-22T14:22:19.278Z,37.25
2023-01-22T14:24:46.115Z,37.39
2023-01-22T14:27:13.256Z,37.23
2023-01-22T14:29:40.346Z,38.10
2023-01-22T14:32:07.061Z,38.16
2023-01-22T14:34:33.806Z,38.52
2023-01-22T14:37:00.593Z,38.26
2023-01-22T14:39:27.455Z,38.16
2023-01-22T14:41:54.208Z,39.13
2023-01-22T14:44:21.123Z,39.15
2023-01-22T14:46:48.797Z,39.21
2023-01-22T14:49:15.613Z,39.09
2023-01-22T14:51:42.472Z,38.70
2023-01-22T14:54:09.176Z,40.26
2023-01-22T14:56:35.862Z,40.00
2023-01-22T14:59:04.700Z,40.88
2023-01-22T15:01:31.443Z,40.59
2023-01-22T15:03:58.226Z,40.14
2023-01-22T15:06:25.137Z,39.82
2023-01-22T15:08:52.805Z,39.86
2023-01-22T15:11:19.549Z,39.82
2023-01-22T15:13:46.530Z,40.26
2023-01-22T15:16:13.601Z,40.58
2023-01-22T15:18:40.878Z,40.07
2023-01-22T15:21:10.499Z,40.22
2023-01-22T15:23:37.420Z,39.86
2023-01-22T15:26:20.431Z,40.75
2023-01-22T15:28:47.348Z,40.31
2023-01-22T15:31:14.074Z,40.76
2023-01-22T15:33:41.009Z,41.63
2023-01-22T15:36:08.611Z,41.38
2023-01-22T15:38:35.372Z,41.42
2023-01-22T15:41:26.641Z,42.77
2023-01-22T15:43:56.095Z,43.21
2023-01-22T15:46:25.054Z,43.59
2023-01-22T15:48:52.756Z,42.36
2023-01-22T15:51:20.540Z,42.61
2023-01-22T15:53:52.050Z,42.45
2023-01-22T15:56:21.041Z,42.07
2023-01-22T15:58:50.315Z,42.16
2023-01-22T16:01:18.407Z,43.09
2023-01-22T16:03:45.800Z,43.31
2023-01-22T16:06:15.153Z,42.56
2023-01-22T16:08:43.446Z,42.85
2023-01-22T16:11:10.691Z,42.84
2023-01-22T16:13:37.831Z,42.76
2023-01-22T16:16:08.006Z,42.64
2023-01-22T16:18:35.794Z,42.94
2023-01-22T16:21:07.136Z,43.41
2023-01-22T16:23:37.555Z,45.22
2023-01-22T16:26:13.242Z,44.00
2023-01-22T16:28:40.863Z,45.13
2023-01-22T16:31:09.690Z,44.36
2023-01-22T16:33:39.197Z,44.04
2023-01-22T16:36:10.087Z,44.67
2023-01-22T16:38:37.111Z,44.25
2023-01-22T16:41:26.287Z,44.57
2023-01-22T16:43:59.411Z,45.13
2023-01-22T16:46:32.103Z,44.36
2023-01-22T16:49:07.790Z,45.91
2023-01-22T16:51:39.899Z,45.86
2023-01-22T16:54:07.620Z,45.01
2023-01-22T16:56:36.575Z,45.64
2023-01-22T16:59:03.551Z,45.89
2023-01-22T17:01:30.982Z,45.48
2023-01-22T17:03:57.741Z,46.03
2023-01-22T17:06:32.537Z,46.03
2023-01-22T17:09:00.181Z,45.78
2023-01-22T17:11:27.135Z,46.01
2023-01-22T17:13:54.291Z,45.57
2023-01-22T17:16:21.081Z,45.01
2023-01-22T17:18:48.088Z,45.06
2023-01-22T17:21:18.130Z,45.68
2023-01-22T17:23:45.315Z,45.37
2023-01-22T17:26:14.571Z,44.92
2023-01-22T17:28:42.076Z,46.17
2023-01-22T17:31:11.855Z,44.97
2023-01-22T17:33:39.262Z,44.57
2023-01-22T17:36:07.075Z,45.37
2023-01-22T17:38:38.361Z,44.75
2023-01-22T17:41:12.343Z,44.32
2023-01-22T17:43:39.175Z,44.40
2023-01-22T17:46:12.426Z,44.28
2023-01-22T17:48:39.746Z,44.20
2023-01-22T17:51:09.579Z,44.70
2023-01-22T17:53:41.826Z,44.71
2023-01-22T17:56:19.112Z,45.51
2023-01-22T17:58:54.080Z,45.07
2023-01-22T18:01:23.910Z,45.09
2023-01-22T18:03:51.333Z,45.13
2023-01-22T18:06:19.278Z,45.11
2023-01-22T18:08:46.187Z,44.97
2023-01-22T18:11:16.580Z,44.75
2023-01-22T18:13:44.384Z,45.01
2023-01-22T18:16:14.149Z,44.75
2023-01-22T18:18:41.690Z,44.68
2023-01-22T18:21:14.166Z,45.49
2023-01-22T18:23:41.079Z,45.70
2023-01-22T18:26:08.708Z,45.67
2023-01-22T18:28:36.436Z,45.48
2023-01-22T18:31:10.942Z,45.38
2023-01-22T18:33:38.612Z,45.75
2023-01-22T18:36:10.693Z,45.49
2023-01-22T18:38:37.975Z,45.29
2023-01-22T18:41:12.184Z,46.00
2023-01-22T18:43:40.000Z,45.14
2023-01-22T18:46:10.679Z,45.13
2023-01-22T18:48:39.572Z,45.46
2023-01-22T18:51:09.076Z,45.04
2023-01-22T18:53:36.423Z,45.63
2023-01-22T18:56:06.346Z,45.11
2023-01-22T18:58:36.215Z,45.30
2023-01-22T19:01:26.992Z,45.06
2023-01-22T19:03:58.277Z,45.47
2023-01-22T19:06:30.784Z,45.48
2023-01-22T19:09:03.534Z,45.39
2023-01-22T19:11:32.318Z,45.66
2023-01-22T19:14:00.625Z,45.18
2023-01-22T19:16:28.203Z,45.90
2023-01-22T19:18:57.135Z,45.54
2023-01-22T19:21:25.769Z,45.02
2023-01-22T19:23:57.659Z,45.01
2023-01-22T19:26:31.205Z,45.28
2023-01-22T19:29:04.640Z,45.88
2023-01-22T19:31:32.931Z,45.20
2023-01-22T19:34:01.174Z,45.49
2023-01-22T19:36:31.247Z,45.29
2023-01-22T19:39:00.775Z,46.52
2023-01-22T19:41:28.453Z,45.71
2023-01-22T19:43:57.355Z,45.65
2023-01-22T19:46:26.071Z,45.79
2023-01-22T19:48:53.617Z,46.08
2023-01-22T19:51:27.013Z,46.02
2023-01-22T19:53:54.826Z,46.64
2023-01-22T19:56:27.191Z,46.98
2023-01-22T19:58:59.294Z,46.99
2023-01-22T20:01:26.643Z,47.37
2023-01-22T20:03:54.901Z,47.06
2023-01-22T20:06:23.301Z,46.87
2023-01-22T20:08:50.472Z,47.08
2023-01-22T20:11:17.978Z,47.29
2023-01-22T20:13:44.832Z,46.92
2023-01-22T20:16:22.274Z,46.17
2023-01-22T20:18:50.571Z,46.41
2023-01-22T20:21:20.577Z,46.33
2023-01-22T20:23:50.114Z,46.37
2023-01-22T20:26:18.819Z,47.38
2023-01-22T20:28:46.677Z,48.48
2023-01-22T20:31:17.411Z,50.18
2023-01-22T20:33:44.197Z,48.33
2023-01-22T20:36:15.142Z,48.49
2023-01-22T20:38:43.752Z,48.09
2023-01-22T20:41:10.659Z,48.76
2023-01-22T20:43:39.514Z,47.73
2023-01-22T20:46:16.125Z,47.51
2023-01-22T20:48:43.591Z,47.44
2023-01-22T20:51:17.008Z,47.01
2023-01-22T20:53:48.636Z,48.01
2023-01-22T20:56:20.961Z,47.84
2023-01-22T20:58:47.824Z,47.24
2023-01-22T21:01:19.157Z,47.00
2023-01-22T21:03:47.953Z,47.10
2023-01-22T21:06:17.910Z,47.33
2023-01-22T21:08:51.881Z,48.04
2023-01-22T21:11:20.687Z,47.70
2023-01-22T21:13:49.419Z,48.96
2023-01-22T21:16:19.008Z,48.67
2023-01-22T21:18:46.604Z,48.98
2023-01-22T21:21:18.311Z,48.52
2023-01-22T21:23:47.734Z,49.35
2023-01-22T21:26:16.281Z,48.78
2023-01-22T21:28:43.136Z,49.08
2023-01-22T21:31:13.129Z,49.98
2023-01-22T21:33:41.131Z,51.35
2023-01-22T21:36:09.421Z,49.82
2023-01-22T21:38:37.165Z,48.55
2023-01-22T21:41:12.657Z,48.62
2023-01-22T21:44:03.315Z,48.83
2023-01-22T21:46:33.892Z,48.75
2023-01-22T21:49:02.412Z,48.29
2023-01-22T21:51:30.974Z,47.37
2023-01-22T21:53:58.648Z,47.52
2023-01-22T21:56:26.639Z,47.39
2023-01-22T21:58:53.495Z,47.71
2023-01-22T22:01:21.979Z,46.48
2023-01-22T22:03:49.122Z,46.34
2023-01-22T22:06:16.009Z,47.29
2023-01-22T22:08:44.412Z,46.03
2023-01-22T22:11:13.473Z,46.65
2023-01-22T22:13:41.117Z,46.62
2023-01-22T22:16:10.049Z,46.27
2023-01-22T22:18:37.296Z,46.41
2023-01-22T22:21:06.819Z,46.27
2023-01-22T22:23:35.322Z,46.47
2023-01-22T22:26:05.163Z,46.27
2023-01-22T22:28:34.826Z,47.10
2023-01-22T22:31:03.792Z,46.80
2023-01-22T22:33:30.739Z,46.89
2023-01-22T22:35:59.923Z,47.11
2023-01-22T22:38:26.597Z,46.28
2023-01-22T22:41:05.668Z,46.72
2023-01-22T22:43:38.002Z,46.79
2023-01-22T22:46:12.729Z,46.55
2023-01-22T22:48:39.859Z,46.78
2023-01-22T22:51:15.588Z,46.63
2023-01-22T22:53:42.523Z,46.46
2023-01-22T22:56:10.703Z,47.57
2023-01-22T22:58:37.911Z,47.53
2023-01-22T23:01:19.321Z,46.82
2023-01-22T23:03:46.496Z,45.81
2023-01-22T23:06:19.232Z,45.87
2023-01-22T23:08:55.649Z,45.88
2023-01-22T23:11:28.273Z,46.29
2023-01-22T23:14:01.206Z,46.26
2023-01-22T23:16:31.786Z,46.64
2023-01-22T23:19:00.692Z,46.55
2023-01-22T23:21:28.602Z,46.69
2023-01-22T23:23:55.848Z,45.96
2023-01-22T23:26:28.243Z,45.75
2023-01-22T23:28:57.946Z,46.02
2023-01-22T23:31:26.069Z,46.01
2023-01-22T23:33:54.982Z,45.55
2023-01-22T23:36:22.637Z,45.31
2023-01-22T23:38:49.852Z,45.44
2023-01-22T23:41:18.225Z,45.77
2023-01-22T23:43:45.859Z,45.60
2023-01-22T23:46:27.194Z,45.49
2023-01-22T23:48:55.887Z,45.41
2023-01-22T23:51:22.910Z,45.74
2023-01-22T23:53:51.946Z,45.35
2023-01-22T23:56:21.460Z,45.57
2023-01-22T23:58:48.343Z,45.44
